Fernando Paz

Olheiro - River Plate
20 Fev 2028
Domingo
Processo

Personalidade

Adaptabilidade (1) Ambição (19) Controvérsia (9) Lealdade (9) Pressão (1) Profissionalismo (14) Espírito Esportivo (19) Temperamento (18)

Perfil

Estilo de Treinamento Democrático
Licença Nacional B
Determinação 14
Gestão de Pessoas 14
Motivação 16
Disciplina 16
Satisfação no Trabalho
100%
Fadiga
0%
Função Olheiro
Salário 24.1K p/s
Contrato 14.03.2028

Desempenho

Comportamento Bom
Eficácia do Treinamento
63%
Desenvolvimento do Jogador
70%
Prevenção de Lesões
75%
Implementação Tática
80%

Eventos Recentes

Negociação de contrato iniciada agora
Participou de uma reunião de recrutamento agora
Recomendou um alvo de transferência agora
Negociação de contrato iniciada agora
Negociação de contrato iniciada agora
Negociação de contrato iniciada agora
Negociação de contrato iniciada 7d atrás
Negociação de contrato iniciada 7d atrás

Monitorando agora

132
Jogador Clube Status Habilidade Confiança Observado Última observação Último voto
Chris Brady Aston Villa Ativo 145 / 146 40% 8 01.12.2027 -
Filip Stanković Virtus Entella Ativo 141 / 141 40% 1 01.12.2027 -
Sean Longstaff Leeds United Ativo 146 / 142 40% 2 27.11.2027 -
Nuno Tavares Lazio Ativo 150 / 151 40% 2 27.11.2027 -
Adrià Altimira Deportivo La Coruña Ativo 140 / 138 40% 1 27.11.2027 -
Maduka Okoye Udinese Ativo 142 / 144 40% 3 26.11.2027 -
Christos Mandas Lazio Ativo 146 / 148 40% 2 26.11.2027 -
Wendel Zenit Ativo 145 / 144 40% 5 24.11.2027 -
Devis Vásquez AS Roma Ativo 131 / 133 40% 3 24.11.2027 -
Hugo Rincón Athletic Bilbao Ativo 137 / 139 40% 2 22.11.2027 -
Federico Dimarco Inter Ativo 164 / 167 40% 1 22.11.2027 -
Morten Frendrup Empoli Ativo 147 / 143 40% 1 22.11.2027 -
Giuseppe Pezzella Cremonese Ativo 134 / 134 40% 1 20.11.2027 -
Valentín Gómez Barcelona Ativo 142 / 147 40% 1 20.11.2027 -
Diego Costa CSKA Moscow Ativo 143 / 140 40% 2 19.11.2027 -
Josep Martínez Inter Ativo 147 / 146 40% 4 19.11.2027 -
Joško Gvardiol Napoli Ativo 171 / 168 40% 1 19.11.2027 -
Arijanet Murić Sassuolo Ativo 147 / 143 40% 4 17.11.2027 -
Gaëtan Poussin Red Star Ativo 138 / 133 40% 1 17.11.2027 -
Carl Rushworth Bayer Leverkusen Ativo 145 / 147 40% 1 15.11.2027 -
Sebastiano Desplanches Palermo Ativo 141 / 139 40% 1 13.11.2027 -
Mateu Morey Girona Ativo 135 / 135 40% 5 12.11.2027 -
Rubens Dinamo Moscow Ativo 134 / 131 40% 1 12.11.2027 -
Nahuel Molina AS Roma Ativo 148 / 152 40% 1 12.11.2027 -
Rico Henry Atlético Madrid Ativo 147 / 145 40% 3 11.11.2027 -
Luca Ranieri Fiorentina Ativo 142 / 146 40% 1 11.11.2027 -
Alexandr Chernikov Krasnodar Ativo 140 / 136 40% 4 10.11.2027 -
Franck Kessié Atalanta Ativo 150 / 152 40% 1 10.11.2027 -
Nicolò Bertola Udinese Ativo 146 / 143 40% 1 08.11.2027 -
Youssouf Fofana AC Milan Ativo 161 / 156 40% 1 07.11.2027 -
Christian Krasnodar Ativo 141 / 139 40% 1 07.11.2027 -
Saúl Coco Torino Ativo 144 / 140 40% 1 06.11.2027 -
Kenneth Taylor Lazio Ativo 152 / 154 40% 1 06.11.2027 -
Raoul Bellanova Atalanta Ativo 157 / 155 40% 2 05.11.2027 -
Odilon Kossounou Palermo Ativo 151 / 150 40% 1 05.11.2027 -
Alessandro Buongiorno Sassuolo Ativo 164 / 160 40% 1 04.11.2027 -
Teun Koopmeiners Juventus Ativo 151 / 153 40% 1 03.11.2027 -
Pervis Estupiñán AC Milan Ativo 149 / 149 40% 1 03.11.2027 -
Matteo Prati Cagliari Ativo 139 / 140 40% 2 01.11.2027 -
Antonino Gallo Pescara Ativo 144 / 142 40% 1 01.11.2027 -
Murillo Nottingham Forest Ativo 160 / 160 40% 2 31.10.2027 -
Malick Yalcouyé Brighton Ativo 128 / 137 40% 2 31.10.2027 -
Marc Casadó Barcelona Ativo 149 / 153 40% 1 29.10.2027 -
Matteo Gabbia AC Milan Ativo 159 / 156 40% 1 29.10.2027 -
Angeliño AS Roma Ativo 155 / 152 40% 1 28.10.2027 -
Iker Muñoz Osasuna Ativo 138 / 137 40% 2 27.10.2027 -
Tobías Andrada Virtus Entella Ativo 117 / 130 40% 1 27.10.2027 -
Mamadou Sangaré Brentford Ativo 146 / 145 40% 3 25.10.2027 -
Josh King Chelsea Ativo 146 / 150 40% 2 25.10.2027 -
Rocco Reitz RB Leipzig Ativo 144 / 147 40% 1 24.10.2027 -
Mamadou Sarr Chelsea Ativo 142 / 149 40% 4 23.10.2027 -
Jorge Cuenca Brentford Ativo 144 / 145 40% 1 22.10.2027 -
Chema Andrés Arsenal Ativo 140 / 144 40% 3 21.10.2027 -
Luka Vušković Manchester United Ativo 148 / 153 40% 1 18.10.2027 -
Gustavo Mantuan Zenit Ativo 136 / 139 40% 3 17.10.2027 -
Yasin Ayari Arsenal Ativo 148 / 150 40% 1 17.10.2027 -
Andrés García Aston Villa Ativo 137 / 142 40% 2 14.10.2027 -
Lewis Miley Chelsea Ativo 150 / 151 40% 2 14.10.2027 -
Jens Cajuste Napoli Ativo 139 / 138 40% 5 13.10.2027 -
Matías Gómez Granada Ativo 115 / 128 40% 1 13.10.2027 -
Matt Freese New York City Ativo 133 / 133 40% 1 12.10.2027 -
Teboho Mokoena Independiente Ativo 135 / 132 40% 1 08.10.2027 -
Dylan Gorosito Villarreal Ativo 117 / 122 40% 1 08.10.2027 -
Leo Østigård Genoa Ativo 140 / 139 40% 1 06.10.2027 -
Anton Stach Leeds United Ativo 153 / 151 40% 1 06.10.2027 -
Eliás Montiel Werder Bremen Ativo 137 / 139 40% 3 29.09.2027 -
Mandela Keita Parma Ativo 136 / 140 40% 2 29.09.2027 -
Jon Pacheco Real Sociedad Ativo 135 / 137 40% 2 28.09.2027 -
Jofre Torrents Ajax Ativo 130 / 135 40% 1 25.09.2027 -
Antoine Mendy OGC Nice Ativo 140 / 137 40% 1 24.09.2027 -
Marcos Senesi Tottenham Ativo 152 / 151 40% 1 24.09.2027 -
Filippo Terracciano AC Milan Ativo 140 / 142 40% 1 23.09.2027 -
Kiliann Sildillia PSV Ativo 140 / 135 40% 1 23.09.2027 -
Damián Celta Ativo 136 / 143 40% 1 20.09.2027 -
Pepelu Valencia Ativo 145 / 141 40% 2 19.09.2027 -
Hiroki Ito Bayern Munich Ativo 154 / 154 40% 1 18.09.2027 -
Adam Aznou Everton Ativo 127 / 128 40% 1 15.09.2027 -
Dean Huijsen Villarreal Ativo 151 / 152 40% 2 13.09.2027 -
Thiago Helguera Braga Ativo 122 / 127 40% 1 13.09.2027 -
Anthony Patterson Twente Ativo 137 / 140 40% 1 12.09.2027 -
Marco Campagnaro Belgrano Ativo 107 / 110 30% 1 / 1m 08.09.2027 -
Adrian Šemper AS Roma Ativo 135 / 135 40% 1 06.09.2027 -
Ander Astralaga Real Sociedad Ativo 138 / 138 40% 1 06.09.2027 -
Rayan Aït-Nouri Manchester City Ativo 146 / 149 40% 2 03.09.2027 -
Juan Giménez Celta Ativo 118 / 124 40% 1 03.09.2027 -
Aarón Anselmino Chelsea Ativo 142 / 146 40% 1 03.09.2027 -
Gabriel Moscardo Paris Saint-Germain Ativo 131 / 138 40% 1 31.08.2027 -
Ethan Ampadu Leeds United Ativo 151 / 147 40% 1 30.08.2027 -
Vitaliy Mykolenko Everton Ativo 142 / 141 40% 1 30.08.2027 -
Agustín Medina Valencia Ativo 121 / 123 40% 1 28.08.2027 -
Samú Al-Nassr Ativo 151 / 152 40% 1 25.08.2027 -
Atakan Karazor VfB Stuttgart Ativo 145 / 140 40% 1 23.08.2027 -
James Hill Bournemouth Ativo 140 / 142 40% 1 21.08.2027 -
Gustavo Del Prete San Lorenzo Ativo 119 / 119 90% 1 19.07.2027 Aprovar
Matías Godoy Estudiantes Ativo 122 / 122 42% 1 / 1m 09.06.2027 -
Ángel González Ferro Carril Oeste Ativo 119 / 119 52% 1 / 1m 09.06.2027 -
Jonathan Menéndez Ferro Carril Oeste Ativo 118 / 118 42% 1 / 1m 09.06.2027 -
Mateus Mané Manchester United Ativo 132 / 140 40% 1 24.05.2027 -
Yankuba Minteh Brighton Ativo 150 / 154 40% 2 15.05.2027 -
Tyler Dibling Chelsea Ativo 137 / 142 40% 2 14.05.2027 -
Ilias Akhomach Villarreal Ativo 142 / 141 40% 1 13.05.2027 -
Mika Godts Paris Saint-Germain Ativo 139 / 138 40% 6 09.05.2027 -
Chemsdine Talbi Chelsea Ativo 137 / 140 40% 1 07.05.2027 -
Kirill Glebov CSKA Moscow Ativo 125 / 132 40% 1 28.04.2027 -
Ulises Delgado Deportivo La Coruña Ativo 112 / 115 42% 1 / 1m 21.04.2027 -
Leandro Vilte Central Norte Ativo 92 / 95 52% 1 / 1m 21.04.2027 -
Fabricio Hass Central Norte Ativo 111 / 111 30% 1 / 1m 21.04.2027 -
Mateo Burgan Temperley Ativo 87 / 92 30% 1 / 1m 21.04.2027 -
Mateo Díaz Chaves Argentinos Juniors Ativo 110 / 113 30% 1 / 1m 21.04.2027 -
Alejo Mainero Estudiantes Ativo 107 / 107 52% 1 / 1m 21.04.2027 -
Théo Hernández Al-Hilal Ativo 154 / 150 40% 1 04.04.2027 -
Houssem Aouar Al-Ittihad Ativo 145 / 142 40% 3 01.04.2027 -
Cyriaque Irié VfL Wolfsburg Ativo 123 / 125 40% 1 01.04.2027 -
Yves Bissouma Tottenham Ativo 144 / 141 40% 1 31.03.2027 -
Dayann Methalie Aston Villa Ativo 133 / 135 40% 1 30.03.2027 -
Rocco Vata Watford Ativo 125 / 128 40% 1 28.03.2027 -
Valentin Atangana Al-Ahli Ativo 127 / 131 40% 1 24.03.2027 -
Gonzalo Cañete Chaco For Ever Ativo 111 / 111 30% 1 / 1m 02.09.2026 -
Matteo Trombini Arsenal Ativo 104 / 107 42% 1 / 1m 26.08.2026 -
Facundo Lencioni Gimnasia y Esgrima Ativo 122 / 122 42% 1 / 1m 26.08.2026 -
Tobías Zárate Almirante Brown Ativo 105 / 105 52% 1 / 1m 26.08.2026 -
Fernando Monetti Ferro Carril Oeste Ativo 125 / 125 30% 1 / 1m 26.08.2026 -
Brandon Cortés Boca Juniors Ativo 117 / 117 52% 1 / 1m 19.08.2026 -
Máximo Paredes Racing Club Ativo 104 / 109 42% 1 / 1m 19.08.2026 -
Franco Aguirre San Telmo Ativo 105 / 105 30% 1 / 1m 19.08.2026 -
Enzo Gaggi Chaco For Ever Ativo 115 / 115 52% 1 / 1m 19.08.2026 -
Mateo Muñoz Talleres Ativo 92 / 95 30% 1 / 1m 19.08.2026 -
Nicolás Romano Gimnasia y Esgrima Ativo 121 / 121 42% 1 / 1m 19.08.2026 -
Tobias Canale Almagro Ativo 84 / 89 30% 1 / 1m 19.08.2026 -
Matías Nouet All Boys Ativo 114 / 114 30% 1 / 1m 19.08.2026 -
Uriel La Roza Defensa y Justicia Ativo 111 / 116 52% 1 / 1m 19.08.2026 -
Luca Duarte Arsenal Ativo 86 / 91 42% 1 / 1m 19.08.2026 -